sensor_id;sensor_type;location;lat;lon;timestamp;temperature;humidity
17333;DHT22;8784;50.94667800;7.08448400;2024-03-08T00:04:22;5.50;91.80
17333;DHT22;8784;50.94667800;7.08448400;2024-03-08T00:06:49;5.60;91.90
17333;DHT22;8784;50.94667800;7.08448400;2024-03-08T00:09:16;5.50;91.90
17333;DHT22;8784;50.94667800;7.08448400;2024-03-08T00:11:43;5.50;92.00
17333;DHT22;8784;50.94667800;7.08448400;2024-03-08T00:14:10;5.40;92.00
17333;DHT22;8784;50.94667800;7.08448400;2024-03-08T00:16:37;5.40;91.90
17333;DHT22;8784;50.94667800;7.08448400;2024-03-08T00:19:04;5.30;91.90
17333;DHT22;8784;50.94667800;7.08448400;2024-03-08T00:21:32;5.40;92.20
17333;DHT22;8784;50.94667800;7.08448400;2024-03-08T00:23:59;5.30;92.10
17333;DHT22;8784;50.94667800;7.08448400;2024-03-08T00:26:26;5.30;92.20
17333;DHT22;8784;50.94667800;7.08448400;2024-03-08T00:28:54;5.30;92.20
17333;DHT22;8784;50.94667800;7.08448400;2024-03-08T00:31:21;5.20;92.20
17333;DHT22;8784;50.94667800;7.08448400;2024-03-08T00:33:48;5.20;92.20
17333;DHT22;8784;50.94667800;7.08448400;2024-03-08T00:36:15;5.20;92.20
17333;DHT22;8784;50.94667800;7.08448400;2024-03-08T00:38:43;5.20;92.40
17333;DHT22;8784;50.94667800;7.08448400;2024-03-08T00:41:10;5.20;92.50
17333;DHT22;8784;50.94667800;7.08448400;2024-03-08T00:43:37;5.10;92.40
17333;DHT22;8784;50.94667800;7.08448400;2024-03-08T00:46:04;5.10;92.40
17333;DHT22;8784;50.94667800;7.08448400;2024-03-08T00:48:30;5.00;92.30
17333;DHT22;8784;50.94667800;7.08448400;2024-03-08T00:50:57;5.00;92.60
17333;DHT22;8784;50.94667800;7.08448400;2024-03-08T00:53:24;4.90;92.50
17333;DHT22;8784;50.94667800;7.08448400;2024-03-08T00:55:52;5.00;92.70
17333;DHT22;8784;50.94667800;7.08448400;2024-03-08T00:58:20;4.90;92.70
17333;DHT22;8784;50.94667800;7.08448400;2024-03-08T01:00:49;4.90;92.70
17333;DHT22;8784;50.94667800;7.08448400;2024-03-08T01:03:16;4.90;92.90
17333;DHT22;8784;50.94667800;7.08448400;2024-03-08T01:05:43;5.00;92.90
17333;DHT22;8784;50.94667800;7.08448400;2024-03-08T01:08:11;4.80;93.00
17333;DHT22;8784;50.94667800;7.08448400;2024-03-08T01:10:38;4.90;93.10
17333;DHT22;8784;50.94667800;7.08448400;2024-03-08T01:13:06;4.90;93.20
17333;DHT22;8784;50.94667800;7.08448400;2024-03-08T01:15:35;4.90;93.00
17333;DHT22;8784;50.94667800;7.08448400;2024-03-08T01:18:02;4.90;93.10
17333;DHT22;8784;50.94667800;7.08448400;2024-03-08T01:20:29;4.90;93.00
17333;DHT22;8784;50.94667800;7.08448400;2024-03-08T01:22:56;4.80;93.20
17333;DHT22;8784;50.94667800;7.08448400;2024-03-08T01:25:23;4.80;93.30
17333;DHT22;8784;50.94667800;7.08448400;2024-03-08T01:27:50;4.70;93.30
17333;DHT22;8784;50.94667800;7.08448400;2024-03-08T01:30:20;4.70;93.40
17333;DHT22;8784;50.94667800;7.08448400;2024-03-08T01:32:47;4.70;93.30
17333;DHT22;8784;50.94667800;7.08448400;2024-03-08T01:35:14;4.70;93.50
17333;DHT22;8784;50.94667800;7.08448400;2024-03-08T01:37:41;4.70;93.40
17333;DHT22;8784;50.94667800;7.08448400;2024-03-08T01:40:08;4.70;93.50
17333;DHT22;8784;50.94667800;7.08448400;2024-03-08T01:42:35;4.80;93.60
17333;DHT22;8784;50.94667800;7.08448400;2024-03-08T01:45:04;4.80;93.50
17333;DHT22;8784;50.94667800;7.08448400;2024-03-08T01:47:32;4.70;93.40
17333;DHT22;8784;50.94667800;7.08448400;2024-03-08T01:50:00;4.70;93.50
17333;DHT22;8784;50.94667800;7.08448400;2024-03-08T01:52:29;4.70;93.70
17333;DHT22;8784;50.94667800;7.08448400;2024-03-08T01:54:58;4.70;93.90
17333;DHT22;8784;50.94667800;7.08448400;2024-03-08T01:57:26;4.70;93.80
17333;DHT22;8784;50.94667800;7.08448400;2024-03-08T01:59:54;4.60;93.70
17333;DHT22;8784;50.94667800;7.08448400;2024-03-08T02:02:22;4.50;93.80
17333;DHT22;8784;50.94667800;7.08448400;2024-03-08T02:04:50;4.50;93.80
17333;DHT22;8784;50.94667800;7.08448400;2024-03-08T02:07:18;4.50;93.90
17333;DHT22;8784;50.94667800;7.08448400;2024-03-08T02:09:45;4.50;93.90
17333;DHT22;8784;50.94667800;7.08448400;2024-03-08T02:12:12;4.50;94.00
17333;DHT22;8784;50.94667800;7.08448400;2024-03-08T02:14:39;4.50;94.10
17333;DHT22;8784;50.94667800;7.08448400;2024-03-08T02:17:06;4.50;94.10
17333;DHT22;8784;50.94667800;7.08448400;2024-03-08T02:19:33;4.50;94.20
17333;DHT22;8784;50.94667800;7.08448400;2024-03-08T02:22:03;4.50;94.20
17333;DHT22;8784;50.94667800;7.08448400;2024-03-08T02:24:31;4.50;94.30
17333;DHT22;8784;50.94667800;7.08448400;2024-03-08T02:26:58;4.40;94.20
17333;DHT22;8784;50.94667800;7.08448400;2024-03-08T02:29:26;4.50;94.30
17333;DHT22;8784;50.94667800;7.08448400;2024-03-08T02:31:52;4.50;94.50
17333;DHT22;8784;50.94667800;7.08448400;2024-03-08T02:34:26;4.50;94.40
17333;DHT22;8784;50.94667800;7.08448400;2024-03-08T02:36:57;4.40;94.30
17333;DHT22;8784;50.94667800;7.08448400;2024-03-08T02:39:25;4.40;94.40
17333;DHT22;8784;50.94667800;7.08448400;2024-03-08T02:41:53;4.40;94.50
17333;DHT22;8784;50.94667800;7.08448400;2024-03-08T02:44:20;4.30;94.50
17333;DHT22;8784;50.94667800;7.08448400;2024-03-08T02:46:47;4.40;94.50
17333;DHT22;8784;50.94667800;7.08448400;2024-03-08T02:49:14;4.40;94.60
17333;DHT22;8784;50.94667800;7.08448400;2024-03-08T02:51:41;4.30;94.50
17333;DHT22;8784;50.94667800;7.08448400;2024-03-08T02:54:08;4.30;94.60
17333;DHT22;8784;50.94667800;7.08448400;2024-03-08T02:56:37;4.30;94.80
17333;DHT22;8784;50.94667800;7.08448400;2024-03-08T02:59:04;4.40;94.80
17333;DHT22;8784;50.94667800;7.08448400;2024-03-08T03:01:30;4.40;94.80
17333;DHT22;8784;50.94667800;7.08448400;2024-03-08T03:03:58;4.30;94.70
17333;DHT22;8784;50.94667800;7.08448400;2024-03-08T03:06:25;4.30;94.80
17333;DHT22;8784;50.94667800;7.08448400;2024-03-08T03:08:51;4.30;94.90
17333;DHT22;8784;50.94667800;7.08448400;2024-03-08T03:11:19;4.30;94.90
17333;DHT22;8784;50.94667800;7.08448400;2024-03-08T03:13:47;4.30;95.20
17333;DHT22;8784;50.94667800;7.08448400;2024-03-08T03:16:17;4.30;95.00
17333;DHT22;8784;50.94667800;7.08448400;2024-03-08T03:18:45;4.30;95.20
17333;DHT22;8784;50.94667800;7.08448400;2024-03-08T03:21:12;4.30;95.10
17333;DHT22;8784;50.94667800;7.08448400;2024-03-08T03:23:39;4.20;95.10
17333;DHT22;8784;50.94667800;7.08448400;2024-03-08T03:26:08;4.20;95.20
17333;DHT22;8784;50.94667800;7.08448400;2024-03-08T03:28:36;4.10;95.20
17333;DHT22;8784;50.94667800;7.08448400;2024-03-08T03:31:06;4.10;95.30
17333;DHT22;8784;50.94667800;7.08448400;2024-03-08T03:33:33;4.10;95.40
17333;DHT22;8784;50.94667800;7.08448400;2024-03-08T03:36:02;4.00;95.40
17333;DHT22;8784;50.94667800;7.08448400;2024-03-08T03:38:30;4.00;95.60
17333;DHT22;8784;50.94667800;7.08448400;2024-03-08T03:40:57;4.00;95.70
17333;DHT22;8784;50.94667800;7.08448400;2024-03-08T03:43:32;4.00;95.80
17333;DHT22;8784;50.94667800;7.08448400;2024-03-08T03:45:59;4.00;95.80
17333;DHT22;8784;50.94667800;7.08448400;2024-03-08T03:48:27;4.00;95.80
17333;DHT22;8784;50.94667800;7.08448400;2024-03-08T03:50:54;4.00;95.80
17333;DHT22;8784;50.94667800;7.08448400;2024-03-08T03:53:21;4.00;95.80
17333;DHT22;8784;50.94667800;7.08448400;2024-03-08T03:55:48;4.10;95.90
17333;DHT22;8784;50.94667800;7.08448400;2024-03-08T03:58:15;4.00;95.90
17333;DHT22;8784;50.94667800;7.08448400;2024-03-08T04:00:42;4.10;96.00
17333;DHT22;8784;50.94667800;7.08448400;2024-03-08T04:03:09;4.10;95.90
17333;DHT22;8784;50.94667800;7.08448400;2024-03-08T04:05:37;4.10;96.00
17333;DHT22;8784;50.94667800;7.08448400;2024-03-08T04:08:04;4.10;96.00
17333;DHT22;8784;50.94667800;7.08448400;2024-03-08T04:10:32;4.20;96.00
17333;DHT22;8784;50.94667800;7.08448400;2024-03-08T04:12:58;4.10;95.90
17333;DHT22;8784;50.94667800;7.08448400;2024-03-08T04:15:25;4.10;96.00
17333;DHT22;8784;50.94667800;7.08448400;2024-03-08T04:17:52;4.10;96.20
17333;DHT22;8784;50.94667800;7.08448400;2024-03-08T04:20:19;4.10;96.20
17333;DHT22;8784;50.94667800;7.08448400;2024-03-08T04:22:48;4.00;96.20
17333;DHT22;8784;50.94667800;7.08448400;2024-03-08T04:25:15;4.00;96.30
17333;DHT22;8784;50.94667800;7.08448400;2024-03-08T04:27:42;4.00;96.30
17333;DHT22;8784;50.94667800;7.08448400;2024-03-08T04:30:10;4.00;96.40
17333;DHT22;8784;50.94667800;7.08448400;2024-03-08T04:32:37;4.00;96.40
17333;DHT22;8784;50.94667800;7.08448400;2024-03-08T04:35:05;4.00;96.50
17333;DHT22;8784;50.94667800;7.08448400;2024-03-08T04:37:32;3.90;96.60
17333;DHT22;8784;50.94667800;7.08448400;2024-03-08T04:40:01;3.90;96.60
17333;DHT22;8784;50.94667800;7.08448400;2024-03-08T04:42:28;3.90;96.70
17333;DHT22;8784;50.94667800;7.08448400;2024-03-08T04:44:58;3.90;96.80
17333;DHT22;8784;50.94667800;7.08448400;2024-03-08T04:47:25;3.90;97.00
17333;DHT22;8784;50.94667800;7.08448400;2024-03-08T04:49:52;3.80;97.10
17333;DHT22;8784;50.94667800;7.08448400;2024-03-08T04:52:20;3.80;97.10
17333;DHT22;8784;50.94667800;7.08448400;2024-03-08T04:54:47;3.80;97.10
17333;DHT22;8784;50.94667800;7.08448400;2024-03-08T04:57:16;3.80;97.20
17333;DHT22;8784;50.94667800;7.08448400;2024-03-08T04:59:43;3.80;97.40
17333;DHT22;8784;50.94667800;7.08448400;2024-03-08T05:02:10;3.70;97.40
17333;DHT22;8784;50.94667800;7.08448400;2024-03-08T05:04:37;3.70;97.50
17333;DHT22;8784;50.94667800;7.08448400;2024-03-08T05:07:04;3.70;97.60
17333;DHT22;8784;50.94667800;7.08448400;2024-03-08T05:09:31;3.70;97.70
17333;DHT22;8784;50.94667800;7.08448400;2024-03-08T05:11:58;3.70;97.80
17333;DHT22;8784;50.94667800;7.08448400;2024-03-08T05:14:26;3.60;98.00
17333;DHT22;8784;50.94667800;7.08448400;2024-03-08T05:16:54;3.70;98.00
17333;DHT22;8784;50.94667800;7.08448400;2024-03-08T05:19:21;3.60;98.00
17333;DHT22;8784;50.94667800;7.08448400;2024-03-08T05:21:49;3.60;98.30
17333;DHT22;8784;50.94667800;7.08448400;2024-03-08T05:24:16;3.70;98.40
17333;DHT22;8784;50.94667800;7.08448400;2024-03-08T05:26:43;3.60;98.40
17333;DHT22;8784;50.94667800;7.08448400;2024-03-08T05:29:10;3.60;98.50
17333;DHT22;8784;50.94667800;7.08448400;2024-03-08T05:31:46;3.60;98.50
17333;DHT22;8784;50.94667800;7.08448400;2024-03-08T05:34:13;3.60;98.70
17333;DHT22;8784;50.94667800;7.08448400;2024-03-08T05:36:40;3.70;98.80
17333;DHT22;8784;50.94667800;7.08448400;2024-03-08T05:39:09;3.70;98.80
17333;DHT22;8784;50.94667800;7.08448400;2024-03-08T05:41:37;3.70;98.90
17333;DHT22;8784;50.94667800;7.08448400;2024-03-08T05:44:04;3.60;99.00
17333;DHT22;8784;50.94667800;7.08448400;2024-03-08T05:46:31;3.60;99.10
17333;DHT22;8784;50.94667800;7.08448400;2024-03-08T05:48:59;3.60;99.10
17333;DHT22;8784;50.94667800;7.08448400;2024-03-08T05:51:30;3.60;99.20
17333;DHT22;8784;50.94667800;7.08448400;2024-03-08T05:54:00;3.60;99.20
17333;DHT22;8784;50.94667800;7.08448400;2024-03-08T05:56:28;3.70;99.30
17333;DHT22;8784;50.94667800;7.08448400;2024-03-08T05:58:55;3.70;99.40
17333;DHT22;8784;50.94667800;7.08448400;2024-03-08T06:01:22;3.70;99.40
17333;DHT22;8784;50.94667800;7.08448400;2024-03-08T06:03:49;3.70;99.50
17333;DHT22;8784;50.94667800;7.08448400;2024-03-08T06:06:18;3.70;99.60
17333;DHT22;8784;50.94667800;7.08448400;2024-03-08T06:08:47;3.70;99.70
17333;DHT22;8784;50.94667800;7.08448400;2024-03-08T06:11:14;3.60;99.70
17333;DHT22;8784;50.94667800;7.08448400;2024-03-08T06:13:43;3.70;99.80
17333;DHT22;8784;50.94667800;7.08448400;2024-03-08T06:16:10;3.80;99.90
17333;DHT22;8784;50.94667800;7.08448400;2024-03-08T06:18:37;3.80;99.90
17333;DHT22;8784;50.94667800;7.08448400;2024-03-08T06:21:04;3.90;99.90
17333;DHT22;8784;50.94667800;7.08448400;2024-03-08T06:23:33;4.00;99.90
17333;DHT22;8784;50.94667800;7.08448400;2024-03-08T06:26:04;4.00;99.90
17333;DHT22;8784;50.94667800;7.08448400;2024-03-08T06:28:31;4.10;99.90
17333;DHT22;8784;50.94667800;7.08448400;2024-03-08T06:30:58;4.10;99.90
17333;DHT22;8784;50.94667800;7.08448400;2024-03-08T06:33:25;4.20;99.90
17333;DHT22;8784;50.94667800;7.08448400;2024-03-08T06:35:53;4.30;99.90
17333;DHT22;8784;50.94667800;7.08448400;2024-03-08T06:38:22;4.30;99.90
17333;DHT22;8784;50.94667800;7.08448400;2024-03-08T06:40:51;4.40;99.90
17333;DHT22;8784;50.94667800;7.08448400;2024-03-08T06:43:18;4.40;99.90
17333;DHT22;8784;50.94667800;7.08448400;2024-03-08T06:45:45;4.50;99.90
17333;DHT22;8784;50.94667800;7.08448400;2024-03-08T06:48:14;4.60;99.90
17333;DHT22;8784;50.94667800;7.08448400;2024-03-08T06:50:42;4.60;99.90
17333;DHT22;8784;50.94667800;7.08448400;2024-03-08T06:53:10;4.80;99.80
17333;DHT22;8784;50.94667800;7.08448400;2024-03-08T06:55:37;4.80;99.70
17333;DHT22;8784;50.94667800;7.08448400;2024-03-08T06:58:05;4.90;99.60
17333;DHT22;8784;50.94667800;7.08448400;2024-03-08T07:00:33;4.90;99.60
17333;DHT22;8784;50.94667800;7.08448400;2024-03-08T07:03:01;5.00;99.50
17333;DHT22;8784;50.94667800;7.08448400;2024-03-08T07:05:28;5.10;99.30
17333;DHT22;8784;50.94667800;7.08448400;2024-03-08T07:07:56;5.20;99.40
17333;DHT22;8784;50.94667800;7.08448400;2024-03-08T07:10:23;5.30;99.30
17333;DHT22;8784;50.94667800;7.08448400;2024-03-08T07:12:51;5.30;99.10
17333;DHT22;8784;50.94667800;7.08448400;2024-03-08T07:15:20;5.40;99.20
17333;DHT22;8784;50.94667800;7.08448400;2024-03-08T07:17:49;5.50;99.00
17333;DHT22;8784;50.94667800;7.08448400;2024-03-08T07:20:18;5.60;98.90
17333;DHT22;8784;50.94667800;7.08448400;2024-03-08T07:22:45;5.60;98.50
17333;DHT22;8784;50.94667800;7.08448400;2024-03-08T07:25:14;5.70;98.70
17333;DHT22;8784;50.94667800;7.08448400;2024-03-08T07:27:47;5.70;98.10
17333;DHT22;8784;50.94667800;7.08448400;2024-03-08T07:30:14;5.80;98.30
17333;DHT22;8784;50.94667800;7.08448400;2024-03-08T07:33:05;6.00;98.40
17333;DHT22;8784;50.94667800;7.08448400;2024-03-08T07:35:33;6.10;97.80
17333;DHT22;8784;50.94667800;7.08448400;2024-03-08T07:38:03;6.10;97.80
17333;DHT22;8784;50.94667800;7.08448400;2024-03-08T07:40:31;6.20;97.60
17333;DHT22;8784;50.94667800;7.08448400;2024-03-08T07:42:58;6.20;97.10
17333;DHT22;8784;50.94667800;7.08448400;2024-03-08T07:45:25;6.30;97.30
17333;DHT22;8784;50.94667800;7.08448400;2024-03-08T07:47:52;6.40;97.00
17333;DHT22;8784;50.94667800;7.08448400;2024-03-08T07:50:22;6.40;96.80
17333;DHT22;8784;50.94667800;7.08448400;2024-03-08T07:52:49;6.50;96.80
17333;DHT22;8784;50.94667800;7.08448400;2024-03-08T07:55:16;6.70;96.80
17333;DHT22;8784;50.94667800;7.08448400;2024-03-08T07:57:44;6.80;96.60
17333;DHT22;8784;50.94667800;7.08448400;2024-03-08T08:00:14;6.90;96.50
17333;DHT22;8784;50.94667800;7.08448400;2024-03-08T08:02:43;7.00;96.70
17333;DHT22;8784;50.94667800;7.08448400;2024-03-08T08:05:11;7.30;96.40
17333;DHT22;8784;50.94667800;7.08448400;2024-03-08T08:07:44;7.40;96.30
17333;DHT22;8784;50.94667800;7.08448400;2024-03-08T08:10:13;7.50;95.80
17333;DHT22;8784;50.94667800;7.08448400;2024-03-08T08:12:44;7.60;95.50
17333;DHT22;8784;50.94667800;7.08448400;2024-03-08T08:15:12;7.60;94.60
17333;DHT22;8784;50.94667800;7.08448400;2024-03-08T08:17:41;7.60;94.60
17333;DHT22;8784;50.94667800;7.08448400;2024-03-08T08:20:09;7.70;94.80
17333;DHT22;8784;50.94667800;7.08448400;2024-03-08T08:22:37;7.80;94.80
17333;DHT22;8784;50.94667800;7.08448400;2024-03-08T08:25:07;7.90;94.10
17333;DHT22;8784;50.94667800;7.08448400;2024-03-08T08:27:34;8.10;94.40
17333;DHT22;8784;50.94667800;7.08448400;2024-03-08T08:30:02;8.10;93.30
17333;DHT22;8784;50.94667800;7.08448400;2024-03-08T08:32:33;8.10;93.50
17333;DHT22;8784;50.94667800;7.08448400;2024-03-08T08:35:01;8.20;93.50
17333;DHT22;8784;50.94667800;7.08448400;2024-03-08T08:37:30;8.20;93.30
17333;DHT22;8784;50.94667800;7.08448400;2024-03-08T08:39:59;8.40;93.20
17333;DHT22;8784;50.94667800;7.08448400;2024-03-08T08:42:32;8.60;93.20
17333;DHT22;8784;50.94667800;7.08448400;2024-03-08T08:44:59;8.50;92.00
17333;DHT22;8784;50.94667800;7.08448400;2024-03-08T08:47:27;8.50;92.20
17333;DHT22;8784;50.94667800;7.08448400;2024-03-08T08:49:54;8.60;91.70
17333;DHT22;8784;50.94667800;7.08448400;2024-03-08T08:52:21;8.80;92.10
17333;DHT22;8784;50.94667800;7.08448400;2024-03-08T08:54:48;8.90;91.50
17333;DHT22;8784;50.94667800;7.08448400;2024-03-08T08:57:16;8.90;90.80
17333;DHT22;8784;50.94667800;7.08448400;2024-03-08T08:59:45;8.80;90.50
17333;DHT22;8784;50.94667800;7.08448400;2024-03-08T09:02:12;8.80;90.70
17333;DHT22;8784;50.94667800;7.08448400;2024-03-08T09:04:42;8.90;91.00
17333;DHT22;8784;50.94667800;7.08448400;2024-03-08T09:07:09;9.00;90.60
17333;DHT22;8784;50.94667800;7.08448400;2024-03-08T09:09:36;9.30;91.00
17333;DHT22;8784;50.94667800;7.08448400;2024-03-08T09:12:04;9.60;90.40
17333;DHT22;8784;50.94667800;7.08448400;2024-03-08T09:14:32;9.70;89.30
17333;DHT22;8784;50.94667800;7.08448400;2024-03-08T09:17:01;9.70;89.40
17333;DHT22;8784;50.94667800;7.08448400;2024-03-08T09:19:28;9.90;89.00
17333;DHT22;8784;50.94667800;7.08448400;2024-03-08T09:21:56;10.20;89.30
17333;DHT22;8784;50.94667800;7.08448400;2024-03-08T09:24:23;10.40;86.90
17333;DHT22;8784;50.94667800;7.08448400;2024-03-08T09:26:49;10.40;86.50
17333;DHT22;8784;50.94667800;7.08448400;2024-03-08T09:29:17;10.50;84.80
17333;DHT22;8784;50.94667800;7.08448400;2024-03-08T09:31:44;10.70;85.40
17333;DHT22;8784;50.94667800;7.08448400;2024-03-08T09:34:13;11.00;85.90
17333;DHT22;8784;50.94667800;7.08448400;2024-03-08T09:36:40;11.20;82.80
17333;DHT22;8784;50.94667800;7.08448400;2024-03-08T09:39:07;11.50;82.50
17333;DHT22;8784;50.94667800;7.08448400;2024-03-08T09:41:34;11.70;81.40
17333;DHT22;8784;50.94667800;7.08448400;2024-03-08T09:44:01;12.00;80.60
17333;DHT22;8784;50.94667800;7.08448400;2024-03-08T09:46:30;12.70;78.40
17333;DHT22;8784;50.94667800;7.08448400;2024-03-08T09:48:57;14.30;75.30
17333;DHT22;8784;50.94667800;7.08448400;2024-03-08T09:51:28;15.40;72.30
17333;DHT22;8784;50.94667800;7.08448400;2024-03-08T09:53:58;16.50;71.70
17333;DHT22;8784;50.94667800;7.08448400;2024-03-08T09:56:25;17.80;70.90
17333;DHT22;8784;50.94667800;7.08448400;2024-03-08T09:58:53;19.50;68.50
17333;DHT22;8784;50.94667800;7.08448400;2024-03-08T10:01:45;20.00;61.80
17333;DHT22;8784;50.94667800;7.08448400;2024-03-08T10:04:12;19.60;58.60
17333;DHT22;8784;50.94667800;7.08448400;2024-03-08T10:06:41;19.50;60.60
17333;DHT22;8784;50.94667800;7.08448400;2024-03-08T10:09:09;20.50;59.90
17333;DHT22;8784;50.94667800;7.08448400;2024-03-08T10:11:37;21.40;59.30
17333;DHT22;8784;50.94667800;7.08448400;2024-03-08T10:14:05;21.40;55.80
17333;DHT22;8784;50.94667800;7.08448400;2024-03-08T10:16:33;21.10;55.80
17333;DHT22;8784;50.94667800;7.08448400;2024-03-08T10:19:02;20.70;55.60
17333;DHT22;8784;50.94667800;7.08448400;2024-03-08T10:21:32;21.70;57.70
17333;DHT22;8784;50.94667800;7.08448400;2024-03-08T10:24:02;22.50;55.00
17333;DHT22;8784;50.94667800;7.08448400;2024-03-08T10:26:31;21.90;51.60
17333;DHT22;8784;50.94667800;7.08448400;2024-03-08T10:28:59;21.90;51.80
17333;DHT22;8784;50.94667800;7.08448400;2024-03-08T10:31:28;20.60;50.90
17333;DHT22;8784;50.94667800;7.08448400;2024-03-08T10:33:58;19.40;53.30
17333;DHT22;8784;50.94667800;7.08448400;2024-03-08T10:36:28;18.40;54.40
17333;DHT22;8784;50.94667800;7.08448400;2024-03-08T10:38:58;17.60;56.50
17333;DHT22;8784;50.94667800;7.08448400;2024-03-08T10:41:31;17.10;57.30
17333;DHT22;8784;50.94667800;7.08448400;2024-03-08T10:44:10;16.70;57.50
17333;DHT22;8784;50.94667800;7.08448400;2024-03-08T10:46:55;16.50;58.10
17333;DHT22;8784;50.94667800;7.08448400;2024-03-08T10:49:30;16.10;57.40
17333;DHT22;8784;50.94667800;7.08448400;2024-03-08T10:52:03;15.10;57.50
17333;DHT22;8784;50.94667800;7.08448400;2024-03-08T10:54:31;14.80;59.10
17333;DHT22;8784;50.94667800;7.08448400;2024-03-08T10:57:03;14.70;59.30
17333;DHT22;8784;50.94667800;7.08448400;2024-03-08T10:59:34;14.40;58.90
17333;DHT22;8784;50.94667800;7.08448400;2024-03-08T11:02:02;13.90;59.10
17333;DHT22;8784;50.94667800;7.08448400;2024-03-08T11:04:31;13.60;59.60
17333;DHT22;8784;50.94667800;7.08448400;2024-03-08T11:07:01;13.30;60.60
17333;DHT22;8784;50.94667800;7.08448400;2024-03-08T11:09:32;13.30;61.40
17333;DHT22;8784;50.94667800;7.08448400;2024-03-08T11:12:23;13.40;61.40
17333;DHT22;8784;50.94667800;7.08448400;2024-03-08T11:15:09;13.30;61.40
17333;DHT22;8784;50.94667800;7.08448400;2024-03-08T11:17:44;13.00;61.60
17333;DHT22;8784;50.94667800;7.08448400;2024-03-08T11:20:13;12.80;61.70
17333;DHT22;8784;50.94667800;7.08448400;2024-03-08T11:22:48;12.70;61.90
17333;DHT22;8784;50.94667800;7.08448400;2024-03-08T11:25:36;12.60;62.00
17333;DHT22;8784;50.94667800;7.08448400;2024-03-08T11:28:14;12.50;62.50
17333;DHT22;8784;50.94667800;7.08448400;2024-03-08T11:30:44;12.50;63.40
17333;DHT22;8784;50.94667800;7.08448400;2024-03-08T11:33:13;12.50;63.30
17333;DHT22;8784;50.94667800;7.08448400;2024-03-08T11:35:42;12.60;63.40
17333;DHT22;8784;50.94667800;7.08448400;2024-03-08T11:38:12;12.60;63.20
17333;DHT22;8784;50.94667800;7.08448400;2024-03-08T11:40:42;12.60;63.10
17333;DHT22;8784;50.94667800;7.08448400;2024-03-08T11:43:17;12.70;63.70
17333;DHT22;8784;50.94667800;7.08448400;2024-03-08T11:45:45;12.70;63.00
17333;DHT22;8784;50.94667800;7.08448400;2024-03-08T11:48:13;12.70;63.50
17333;DHT22;8784;50.94667800;7.08448400;2024-03-08T11:50:41;12.80;62.90
17333;DHT22;8784;50.94667800;7.08448400;2024-03-08T11:53:09;12.80;62.50
17333;DHT22;8784;50.94667800;7.08448400;2024-03-08T11:55:37;12.60;62.00
17333;DHT22;8784;50.94667800;7.08448400;2024-03-08T11:58:05;12.60;62.60
17333;DHT22;8784;50.94667800;7.08448400;2024-03-08T12:00:41;12.70;62.80
17333;DHT22;8784;50.94667800;7.08448400;2024-03-08T12:03:13;12.80;63.50
17333;DHT22;8784;50.94667800;7.08448400;2024-03-08T12:05:44;13.00;63.00
17333;DHT22;8784;50.94667800;7.08448400;2024-03-08T12:08:13;13.00;62.20
17333;DHT22;8784;50.94667800;7.08448400;2024-03-08T12:10:41;12.90;61.90
17333;DHT22;8784;50.94667800;7.08448400;2024-03-08T12:13:09;12.90;62.60
17333;DHT22;8784;50.94667800;7.08448400;2024-03-08T12:15:41;13.00;62.80
17333;DHT22;8784;50.94667800;7.08448400;2024-03-08T12:18:11;13.10;63.00
17333;DHT22;8784;50.94667800;7.08448400;2024-03-08T12:20:40;13.10;62.00
17333;DHT22;8784;50.94667800;7.08448400;2024-03-08T12:23:15;13.10;62.70
17333;DHT22;8784;50.94667800;7.08448400;2024-03-08T12:25:43;13.20;62.20
17333;DHT22;8784;50.94667800;7.08448400;2024-03-08T12:28:11;13.20;62.70
17333;DHT22;8784;50.94667800;7.08448400;2024-03-08T12:30:47;13.30;62.30
17333;DHT22;8784;50.94667800;7.08448400;2024-03-08T12:33:15;13.30;61.90
17333;DHT22;8784;50.94667800;7.08448400;2024-03-08T12:35:50;13.20;62.60
17333;DHT22;8784;50.94667800;7.08448400;2024-03-08T12:38:20;13.30;62.80
17333;DHT22;8784;50.94667800;7.08448400;2024-03-08T12:40:50;13.30;63.20
17333;DHT22;8784;50.94667800;7.08448400;2024-03-08T12:43:22;13.50;63.10
17333;DHT22;8784;50.94667800;7.08448400;2024-03-08T12:45:51;13.60;63.30
17333;DHT22;8784;50.94667800;7.08448400;2024-03-08T12:48:23;13.80;62.90
17333;DHT22;8784;50.94667800;7.08448400;2024-03-08T12:50:50;13.80;62.50
17333;DHT22;8784;50.94667800;7.08448400;2024-03-08T12:53:19;13.70;61.50
17333;DHT22;8784;50.94667800;7.08448400;2024-03-08T12:55:49;13.70;61.50
17333;DHT22;8784;50.94667800;7.08448400;2024-03-08T12:58:16;13.70;61.90
17333;DHT22;8784;50.94667800;7.08448400;2024-03-08T13:00:44;13.70;61.80
17333;DHT22;8784;50.94667800;7.08448400;2024-03-08T13:03:12;13.70;61.80
17333;DHT22;8784;50.94667800;7.08448400;2024-03-08T13:05:40;13.60;60.90
17333;DHT22;8784;50.94667800;7.08448400;2024-03-08T13:08:08;13.50;60.50
17333;DHT22;8784;50.94667800;7.08448400;2024-03-08T13:10:39;13.40;60.20
17333;DHT22;8784;50.94667800;7.08448400;2024-03-08T13:13:06;13.40;60.90
17333;DHT22;8784;50.94667800;7.08448400;2024-03-08T13:15:35;13.30;60.60
17333;DHT22;8784;50.94667800;7.08448400;2024-03-08T13:18:04;13.30;61.20
17333;DHT22;8784;50.94667800;7.08448400;2024-03-08T13:20:36;13.30;60.80
17333;DHT22;8784;50.94667800;7.08448400;2024-03-08T13:23:04;13.30;60.40
17333;DHT22;8784;50.94667800;7.08448400;2024-03-08T13:25:31;13.40;60.50
17333;DHT22;8784;50.94667800;7.08448400;2024-03-08T13:27:59;13.40;60.20
17333;DHT22;8784;50.94667800;7.08448400;2024-03-08T13:30:26;13.40;60.00
17333;DHT22;8784;50.94667800;7.08448400;2024-03-08T13:32:53;13.30;60.40
17333;DHT22;8784;50.94667800;7.08448400;2024-03-08T13:35:21;13.30;60.30
17333;DHT22;8784;50.94667800;7.08448400;2024-03-08T13:37:54;13.30;59.50
17333;DHT22;8784;50.94667800;7.08448400;2024-03-08T13:40:21;13.30;60.00
17333;DHT22;8784;50.94667800;7.08448400;2024-03-08T13:42:49;13.20;59.70
17333;DHT22;8784;50.94667800;7.08448400;2024-03-08T13:45:16;13.20;60.20
17333;DHT22;8784;50.94667800;7.08448400;2024-03-08T13:47:49;13.20;60.30
17333;DHT22;8784;50.94667800;7.08448400;2024-03-08T13:50:17;13.20;60.50
17333;DHT22;8784;50.94667800;7.08448400;2024-03-08T13:52:47;13.20;60.50